createdAt,value
2018-12-29T00:00:21.729Z,7.29
2018-12-29T00:01:21.650Z,7.23
2018-12-29T00:03:14.422Z,7.15
2018-12-29T00:04:14.357Z,7.24
2018-12-29T00:06:07.130Z,7.18
2018-12-29T00:07:07.055Z,7.19
2018-12-29T00:08:59.860Z,7.27
2018-12-29T00:09:59.753Z,7.19
2018-12-29T00:11:52.530Z,7.21
2018-12-29T00:12:52.459Z,7.29
2018-12-29T00:14:45.228Z,7.23
2018-12-29T00:15:45.154Z,7.18
2018-12-29T00:17:37.915Z,7.16
2018-12-29T00:18:37.850Z,7.24
2018-12-29T00:20:30.631Z,7.15
2018-12-29T00:21:30.553Z,7.18
2018-12-29T00:23:23.315Z,7.23
2018-12-29T00:24:23.247Z,7.26
2018-12-29T00:26:16.013Z,7.19
2018-12-29T00:27:15.964Z,7.26
2018-12-29T00:29:08.684Z,7.12
2018-12-29T00:30:08.621Z,7.18
2018-12-29T00:32:01.374Z,7.24
2018-12-29T00:33:01.296Z,7.21
2018-12-29T00:34:54.083Z,7.18
2018-12-29T00:35:53.999Z,7.24
2018-12-29T00:37:46.739Z,7.27
2018-12-29T00:38:46.668Z,7.24
2018-12-29T00:40:39.424Z,7.23
2018-12-29T00:41:39.343Z,7.27
2018-12-29T00:43:32.110Z,7.24
2018-12-29T00:44:32.042Z,7.26
2018-12-29T00:46:24.810Z,7.29
2018-12-29T00:47:24.719Z,7.23
2018-12-29T00:49:17.472Z,7.27
2018-12-29T00:50:17.393Z,7.24
2018-12-29T00:52:10.149Z,7.32
2018-12-29T00:53:10.070Z,7.24
2018-12-29T00:55:02.908Z,7.23
2018-12-29T00:56:02.837Z,7.29
2018-12-29T00:57:55.607Z,7.27
2018-12-29T00:58:55.528Z,7.26
2018-12-29T01:00:48.313Z,7.24
2018-12-29T01:01:48.257Z,7.21
2018-12-29T01:03:41.066Z,7.24
2018-12-29T01:04:40.993Z,7.29
2018-12-29T01:06:33.743Z,7.29
2018-12-29T01:07:33.661Z,7.27
2018-12-29T01:09:26.435Z,7.24
2018-12-29T01:10:26.366Z,7.32
2018-12-29T01:12:19.226Z,7.33
2018-12-29T01:13:19.139Z,7.26
2018-12-29T01:15:11.883Z,7.26
2018-12-29T01:16:11.810Z,7.26
2018-12-29T01:18:04.608Z,7.24
2018-12-29T01:19:04.530Z,7.19
2018-12-29T01:20:57.281Z,7.19
2018-12-29T01:21:57.213Z,7.29
2018-12-29T01:23:50.009Z,7.29
2018-12-29T01:24:49.950Z,7.26
2018-12-29T01:26:42.746Z,7.34
2018-12-29T01:27:42.669Z,7.27
2018-12-29T01:29:35.474Z,7.24
2018-12-29T01:30:35.363Z,7.29
2018-12-29T01:32:28.157Z,7.27
2018-12-29T01:33:28.076Z,7.29
2018-12-29T01:35:20.890Z,7.34
2018-12-29T01:36:20.779Z,7.33
2018-12-29T01:38:13.558Z,7.21
2018-12-29T01:39:13.477Z,7.21
2018-12-29T01:41:06.306Z,7.34
2018-12-29T01:42:06.238Z,7.33
2018-12-29T01:43:59.004Z,7.29
2018-12-29T01:44:58.927Z,7.33
2018-12-29T01:46:51.724Z,7.27
2018-12-29T01:47:51.625Z,7.27
2018-12-29T01:49:44.387Z,7.24
2018-12-29T01:50:44.314Z,7.30
2018-12-29T01:52:37.101Z,7.23
2018-12-29T01:53:37.021Z,7.26
2018-12-29T01:55:29.761Z,7.32
2018-12-29T01:56:29.694Z,7.19
2018-12-29T01:58:22.450Z,7.30
2018-12-29T01:59:22.390Z,7.29
2018-12-29T02:01:15.134Z,7.23
2018-12-29T02:02:15.068Z,7.26
2018-12-29T02:04:07.862Z,7.24
2018-12-29T02:05:07.784Z,7.24
2018-12-29T02:07:00.538Z,7.32
2018-12-29T02:08:00.471Z,7.26
2018-12-29T02:09:53.242Z,7.26
2018-12-29T02:10:53.162Z,7.29
2018-12-29T02:12:45.910Z,7.26
2018-12-29T02:13:45.835Z,7.24
2018-12-29T02:15:38.604Z,7.26
2018-12-29T02:16:38.523Z,7.21
2018-12-29T02:18:31.288Z,7.24
2018-12-29T02:19:31.209Z,7.23
2018-12-29T02:21:23.955Z,7.21
2018-12-29T02:22:23.900Z,7.21
2018-12-29T02:24:16.644Z,7.18
2018-12-29T02:25:16.572Z,7.27
2018-12-29T02:27:09.333Z,7.27
2018-12-29T02:28:09.259Z,7.21
2018-12-29T02:30:02.039Z,7.26
2018-12-29T02:31:01.961Z,7.23
2018-12-29T02:32:54.762Z,7.26
2018-12-29T02:33:54.674Z,7.24
2018-12-29T02:35:47.486Z,7.21
2018-12-29T02:36:47.405Z,7.15
2018-12-29T02:38:40.169Z,7.19
2018-12-29T02:39:40.086Z,7.19
2018-12-29T02:41:32.832Z,7.19
2018-12-29T02:42:32.769Z,7.18
2018-12-29T02:44:25.535Z,7.19
2018-12-29T02:45:32.821Z,7.23
2018-12-29T02:47:18.203Z,7.23
2018-12-29T02:48:18.134Z,7.26
2018-12-29T02:50:10.939Z,7.24
2018-12-29T02:51:10.858Z,7.21
2018-12-29T02:53:03.609Z,7.23
2018-12-29T02:54:03.541Z,7.16
2018-12-29T02:55:56.359Z,7.21
2018-12-29T02:56:56.282Z,7.16
2018-12-29T02:58:49.075Z,7.14
2018-12-29T02:59:49.002Z,7.21
2018-12-29T03:01:41.764Z,7.18
2018-12-29T03:02:41.693Z,7.19
2018-12-29T03:04:34.514Z,7.23
2018-12-29T03:05:34.439Z,7.19
2018-12-29T03:07:27.247Z,7.23
2018-12-29T03:08:27.180Z,7.19
2018-12-29T03:10:20.033Z,7.14
2018-12-29T03:11:19.927Z,7.14
2018-12-29T03:13:12.750Z,7.18
2018-12-29T03:14:12.688Z,7.15
2018-12-29T03:16:05.487Z,7.18
2018-12-29T03:17:05.431Z,7.15
2018-12-29T03:18:58.190Z,7.19
2018-12-29T03:19:58.156Z,7.24
2018-12-29T03:21:50.897Z,7.23
2018-12-29T03:22:50.820Z,7.15
2018-12-29T03:24:43.629Z,7.23
2018-12-29T03:25:43.495Z,7.18
2018-12-29T03:27:36.298Z,7.23
2018-12-29T03:28:36.286Z,7.16
2018-12-29T03:30:29.035Z,7.19
2018-12-29T03:31:28.958Z,7.15
2018-12-29T03:33:21.732Z,7.23
2018-12-29T03:34:21.657Z,7.18
2018-12-29T03:36:14.459Z,7.12
2018-12-29T03:37:14.383Z,7.14
2018-12-29T03:39:07.195Z,7.18
2018-12-29T03:40:07.130Z,7.23
2018-12-29T03:41:59.953Z,7.19
2018-12-29T03:42:59.881Z,7.18
2018-12-29T03:44:52.696Z,7.21
2018-12-29T03:45:52.632Z,7.21
2018-12-29T03:47:45.439Z,7.11
2018-12-29T03:48:45.365Z,7.14
2018-12-29T03:50:38.136Z,7.15
2018-12-29T03:51:38.094Z,7.14
2018-12-29T03:53:30.849Z,7.24
2018-12-29T03:54:30.779Z,7.21
2018-12-29T03:56:23.594Z,7.26
2018-12-29T03:57:23.516Z,7.19
2018-12-29T03:59:16.276Z,7.21
2018-12-29T04:00:16.201Z,7.24
2018-12-29T04:02:09.043Z,7.19
2018-12-29T04:03:08.957Z,7.26
2018-12-29T04:05:01.741Z,7.19
2018-12-29T04:06:01.678Z,7.18
2018-12-29T04:07:54.505Z,7.15
2018-12-29T04:08:54.436Z,7.16
2018-12-29T04:10:47.335Z,7.16
2018-12-29T04:11:47.191Z,7.15
2018-12-29T04:13:40.001Z,7.14
2018-12-29T04:14:39.943Z,7.18
2018-12-29T04:16:32.772Z,7.23
2018-12-29T04:17:32.666Z,7.16
2018-12-29T04:19:25.408Z,7.19
2018-12-29T04:20:25.337Z,7.24
2018-12-29T04:22:18.179Z,7.18
2018-12-29T04:23:18.093Z,7.11
2018-12-29T04:25:10.917Z,7.21
2018-12-29T04:26:10.841Z,7.18
2018-12-29T04:28:03.611Z,7.21
2018-12-29T04:29:03.536Z,7.18
2018-12-29T04:30:56.281Z,7.19
2018-12-29T04:31:56.208Z,7.21
2018-12-29T04:33:48.979Z,7.19
2018-12-29T04:34:48.902Z,7.15
2018-12-29T04:36:41.701Z,7.15
2018-12-29T04:37:41.596Z,7.09
2018-12-29T04:39:34.353Z,7.11
2018-12-29T04:40:34.283Z,7.12
2018-12-29T04:42:27.117Z,7.18
2018-12-29T04:43:27.060Z,7.15
2018-12-29T04:45:19.915Z,7.16
2018-12-29T04:46:19.846Z,7.16
2018-12-29T04:48:12.623Z,7.21
2018-12-29T04:49:12.543Z,7.15
2018-12-29T04:51:05.383Z,7.11
2018-12-29T04:52:05.285Z,7.14
2018-12-29T04:53:58.149Z,7.12
2018-12-29T04:54:58.033Z,7.12
2018-12-29T04:56:50.858Z,7.16
2018-12-29T04:57:50.793Z,7.12
2018-12-29T04:59:43.558Z,7.19
2018-12-29T05:00:43.476Z,7.08
2018-12-29T05:02:36.268Z,7.18
2018-12-29T05:03:36.189Z,7.07
2018-12-29T05:05:29.110Z,7.04
2018-12-29T05:06:28.931Z,7.01
2018-12-29T05:08:21.772Z,7.09
2018-12-29T05:09:21.684Z,7.11
2018-12-29T05:11:14.527Z,7.14
2018-12-29T05:12:14.444Z,7.12
2018-12-29T05:14:07.281Z,7.07
2018-12-29T05:15:07.204Z,7.15
2018-12-29T05:16:59.953Z,7.14
2018-12-29T05:17:59.883Z,7.07
2018-12-29T05:19:52.786Z,7.08
2018-12-29T05:20:52.708Z,7.14
2018-12-29T05:22:45.615Z,7.14
2018-12-29T05:23:45.473Z,7.18
2018-12-29T05:25:38.246Z,7.18
2018-12-29T05:26:38.178Z,7.08
2018-12-29T05:28:31.067Z,7.08
2018-12-29T05:29:30.991Z,7.15
2018-12-29T05:31:23.734Z,7.12
2018-12-29T05:32:23.667Z,7.12
2018-12-29T05:34:16.480Z,7.07
2018-12-29T05:35:16.386Z,7.08
2018-12-29T05:37:09.174Z,7.09
2018-12-29T05:38:09.095Z,7.11
2018-12-29T05:40:01.912Z,7.07
2018-12-29T05:41:01.836Z,7.14
2018-12-29T05:42:54.584Z,7.08
2018-12-29T05:43:54.541Z,7.11
2018-12-29T05:45:47.328Z,7.07
2018-12-29T05:46:47.264Z,7.09
2018-12-29T05:48:40.069Z,7.04
2018-12-29T05:49:39.996Z,7.04
2018-12-29T05:51:32.745Z,7.11
2018-12-29T05:52:32.662Z,7.08
2018-12-29T05:54:25.505Z,7.04
2018-12-29T05:55:25.389Z,7.11
2018-12-29T05:57:18.198Z,7.09
2018-12-29T05:58:18.127Z,7.00
2018-12-29T06:00:10.957Z,7.12
2018-12-29T06:01:10.877Z,7.08
2018-12-29T06:03:03.631Z,6.96
2018-12-29T06:04:03.549Z,7.15
2018-12-29T06:05:56.367Z,7.09
2018-12-29T06:06:56.278Z,7.08
2018-12-29T06:08:49.134Z,7.11
2018-12-29T06:09:49.083Z,7.08
2018-12-29T06:11:41.879Z,7.07
2018-12-29T06:12:41.797Z,7.15
2018-12-29T06:14:34.625Z,7.08
2018-12-29T06:15:34.549Z,7.15
2018-12-29T06:17:27.347Z,6.96
2018-12-29T06:18:27.282Z,7.04
2018-12-29T06:20:20.123Z,7.00
2018-12-29T06:21:20.042Z,7.04
2018-12-29T06:23:12.832Z,6.96
2018-12-29T06:24:12.760Z,6.93
2018-12-29T06:26:05.651Z,7.00
2018-12-29T06:27:05.567Z,6.91
2018-12-29T06:28:58.331Z,6.99
2018-12-29T06:29:58.265Z,7.01
2018-12-29T06:31:51.150Z,7.04
2018-12-29T06:32:51.028Z,6.90
2018-12-29T06:34:43.835Z,6.89
2018-12-29T06:35:43.714Z,6.91
2018-12-29T06:37:36.542Z,6.97
2018-12-29T06:38:36.428Z,6.99
2018-12-29T06:40:29.257Z,6.89
2018-12-29T06:41:29.181Z,7.00
2018-12-29T06:43:22.067Z,6.87
2018-12-29T06:44:21.958Z,7.00
2018-12-29T06:46:14.760Z,6.90
2018-12-29T06:47:14.693Z,6.89
2018-12-29T06:49:07.500Z,6.90
2018-12-29T06:50:07.424Z,6.93
2018-12-29T06:52:00.187Z,6.99
2018-12-29T06:53:00.109Z,6.96
2018-12-29T06:54:52.898Z,6.94
2018-12-29T06:55:52.828Z,6.90
2018-12-29T06:57:47.226Z,6.87
2018-12-29T06:58:45.572Z,6.94
2018-12-29T07:00:38.293Z,7.04
2018-12-29T07:01:38.214Z,6.89
2018-12-29T07:03:31.020Z,6.96
2018-12-29T07:04:30.939Z,6.97
2018-12-29T07:06:23.736Z,6.90
2018-12-29T07:07:23.644Z,6.91
2018-12-29T07:09:16.441Z,6.97
2018-12-29T07:10:16.392Z,7.00
2018-12-29T07:12:09.319Z,7.00
2018-12-29T07:13:09.257Z,6.97
2018-12-29T07:15:02.841Z,7.04
2018-12-29T07:16:02.764Z,7.04
2018-12-29T07:17:55.582Z,6.90
2018-12-29T07:18:55.498Z,6.90
2018-12-29T07:20:48.286Z,6.90
2018-12-29T07:21:48.188Z,6.99
2018-12-29T07:23:40.945Z,6.90
2018-12-29T07:24:40.886Z,7.01
2018-12-29T07:26:33.651Z,6.99
2018-12-29T07:27:33.581Z,6.97
2018-12-29T07:29:26.353Z,6.89
2018-12-29T07:30:26.267Z,6.96
2018-12-29T07:32:19.049Z,7.00
2018-12-29T07:33:18.977Z,6.99
2018-12-29T07:35:11.815Z,6.96
2018-12-29T07:36:11.793Z,7.00
2018-12-29T07:38:04.644Z,6.97
2018-12-29T07:39:04.479Z,6.97
2018-12-29T07:40:57.271Z,6.96
2018-12-29T07:41:57.192Z,6.97
2018-12-29T07:43:50.001Z,7.04
2018-12-29T07:44:49.930Z,7.00
2018-12-29T07:46:49.436Z,6.99
2018-12-29T07:47:42.678Z,6.96
2018-12-29T07:49:36.365Z,6.99
2018-12-29T07:50:36.282Z,6.97
2018-12-29T07:52:29.291Z,6.99
2018-12-29T07:53:29.124Z,7.00
2018-12-29T07:55:21.926Z,7.00
2018-12-29T07:56:21.846Z,7.01
2018-12-29T07:58:14.660Z,7.01
2018-12-29T07:59:14.583Z,7.08
2018-12-29T08:01:07.447Z,7.00
2018-12-29T08:02:07.358Z,7.09
2018-12-29T08:04:00.156Z,7.08
2018-12-29T08:05:00.226Z,7.07
2018-12-29T08:06:52.826Z,7.00
2018-12-29T08:07:52.764Z,6.99
2018-12-29T08:09:45.561Z,7.09
2018-12-29T08:10:45.433Z,7.00
2018-12-29T08:12:38.208Z,6.97
2018-12-29T08:13:38.126Z,7.00
2018-12-29T08:15:30.961Z,7.01
2018-12-29T08:16:30.873Z,7.04
2018-12-29T08:18:23.625Z,6.96
2018-12-29T08:19:23.542Z,6.97
2018-12-29T08:21:16.310Z,6.99
2018-12-29T08:22:16.220Z,6.90
2018-12-29T08:24:09.004Z,6.99
2018-12-29T08:25:08.931Z,6.96
2018-12-29T08:27:01.737Z,6.97
2018-12-29T08:28:01.672Z,6.96
2018-12-29T08:29:54.485Z,6.99
2018-12-29T08:30:54.401Z,6.96
2018-12-29T08:32:47.250Z,6.96
2018-12-29T08:33:47.158Z,6.94
2018-12-29T08:35:40.010Z,6.99
2018-12-29T08:36:39.931Z,6.91
2018-12-29T08:38:32.681Z,6.91
2018-12-29T08:39:32.575Z,6.86
2018-12-29T08:41:25.409Z,6.93
2018-12-29T08:42:25.310Z,6.96
2018-12-29T08:44:18.100Z,6.93
2018-12-29T08:45:18.020Z,6.99
2018-12-29T08:47:10.779Z,7.00
2018-12-29T08:48:10.696Z,6.96
2018-12-29T08:50:03.495Z,7.01
2018-12-29T08:51:03.416Z,6.90
2018-12-29T08:52:56.185Z,6.96
2018-12-29T08:53:56.104Z,6.89
2018-12-29T08:55:48.936Z,6.97
2018-12-29T08:56:48.864Z,6.97
2018-12-29T08:58:41.664Z,7.01
2018-12-29T08:59:41.594Z,7.09
2018-12-29T09:01:34.414Z,7.01
2018-12-29T09:02:34.305Z,6.99
2018-12-29T09:04:27.074Z,7.09
2018-12-29T09:05:27.009Z,7.09
2018-12-29T09:07:19.911Z,7.12
2018-12-29T09:08:19.712Z,7.11
2018-12-29T09:10:12.474Z,6.96
2018-12-29T09:11:12.413Z,7.08
2018-12-29T09:13:05.250Z,7.01
2018-12-29T09:14:05.183Z,7.11
2018-12-29T09:15:57.921Z,7.09
2018-12-29T09:16:57.836Z,7.09
2018-12-29T09:18:51.450Z,7.09
2018-12-29T09:19:51.391Z,7.05
2018-12-29T09:21:44.169Z,7.16
2018-12-29T09:22:44.090Z,7.15
2018-12-29T09:24:36.831Z,7.09
2018-12-29T09:25:36.759Z,7.14
2018-12-29T09:27:29.544Z,7.15
2018-12-29T09:28:29.453Z,7.08
2018-12-29T09:30:22.247Z,7.12
2018-12-29T09:31:22.163Z,7.11
2018-12-29T09:33:15.003Z,7.14
2018-12-29T09:34:22.267Z,7.09
2018-12-29T09:36:07.689Z,7.08
2018-12-29T09:37:07.619Z,7.09
2018-12-29T09:39:00.366Z,7.15
2018-12-29T09:40:00.286Z,7.19
2018-12-29T09:41:53.092Z,7.12
2018-12-29T09:42:53.017Z,7.04
2018-12-29T09:44:45.871Z,7.09
2018-12-29T09:45:45.793Z,7.14
2018-12-29T09:47:38.547Z,7.12
2018-12-29T09:48:38.475Z,7.11
2018-12-29T09:50:31.250Z,7.15
2018-12-29T09:51:31.185Z,7.19
2018-12-29T09:53:24.004Z,7.18
2018-12-29T09:54:23.927Z,7.18
2018-12-29T09:56:16.821Z,7.19
2018-12-29T09:57:16.624Z,7.15
2018-12-29T09:59:09.380Z,7.09
2018-12-29T10:00:09.337Z,7.12
2018-12-29T10:02:02.090Z,7.15
2018-12-29T10:03:01.994Z,7.23
2018-12-29T10:04:54.760Z,7.14
2018-12-29T10:05:54.707Z,7.19
2018-12-29T10:07:47.463Z,7.23
2018-12-29T10:08:47.379Z,7.26
2018-12-29T10:10:40.282Z,7.33
2018-12-29T10:11:40.184Z,7.34
2018-12-29T10:13:32.999Z,7.29
2018-12-29T10:14:32.879Z,7.48
2018-12-29T10:16:25.681Z,7.37
2018-12-29T10:17:27.135Z,7.44
2018-12-29T10:19:18.391Z,7.41
2018-12-29T10:20:18.348Z,7.47
2018-12-29T10:22:11.122Z,7.42
2018-12-29T10:23:11.030Z,7.45
2018-12-29T10:25:03.830Z,7.42
2018-12-29T10:26:03.763Z,7.44
2018-12-29T10:27:56.525Z,7.42
2018-12-29T10:28:56.448Z,7.42
2018-12-29T10:30:49.217Z,7.41
2018-12-29T10:31:49.149Z,7.48
2018-12-29T10:33:41.927Z,7.50
2018-12-29T10:34:41.837Z,7.44
2018-12-29T10:36:34.656Z,7.48
2018-12-29T10:37:34.589Z,7.54
2018-12-29T10:39:27.389Z,7.47
2018-12-29T10:40:27.315Z,7.48
2018-12-29T10:42:20.067Z,7.45
2018-12-29T10:43:19.998Z,7.39
2018-12-29T10:45:14.440Z,7.47
2018-12-29T10:46:12.704Z,7.45
2018-12-29T10:48:05.534Z,7.34
2018-12-29T10:49:05.396Z,7.42
2018-12-29T10:50:58.212Z,7.42
2018-12-29T10:51:58.144Z,7.42
2018-12-29T10:53:50.930Z,7.44
2018-12-29T10:54:50.850Z,7.41
2018-12-29T10:56:43.608Z,7.45
2018-12-29T10:57:43.537Z,7.44
2018-12-29T10:59:36.360Z,7.47
2018-12-29T11:00:36.291Z,7.37
2018-12-29T11:02:29.115Z,7.45
2018-12-29T11:03:29.035Z,7.42
2018-12-29T11:05:21.864Z,7.45
2018-12-29T11:06:21.786Z,7.42
2018-12-29T11:08:14.635Z,7.45
2018-12-29T11:09:14.535Z,7.54
2018-12-29T11:11:07.301Z,7.47
2018-12-29T11:12:07.211Z,7.45
2018-12-29T11:14:00.026Z,7.47
2018-12-29T11:14:59.948Z,7.54
2018-12-29T11:16:52.734Z,7.50
2018-12-29T11:17:52.675Z,7.52
2018-12-29T11:19:45.475Z,7.52
2018-12-29T11:20:45.379Z,7.44
2018-12-29T11:22:38.157Z,7.47
2018-12-29T11:23:38.086Z,7.47
2018-12-29T11:25:30.906Z,7.45
2018-12-29T11:26:30.833Z,7.52
2018-12-29T11:28:23.650Z,7.57
2018-12-29T11:29:23.580Z,7.63
2018-12-29T11:31:16.412Z,7.69
2018-12-29T11:32:16.334Z,7.63
2018-12-29T11:34:09.346Z,7.74
2018-12-29T11:35:09.081Z,7.84
2018-12-29T11:37:01.893Z,7.76
2018-12-29T11:38:01.821Z,7.74
2018-12-29T11:39:54.670Z,7.84
2018-12-29T11:40:54.584Z,7.86
2018-12-29T11:42:47.349Z,7.94
2018-12-29T11:43:47.280Z,8.00
2018-12-29T11:45:40.070Z,7.99
2018-12-29T11:46:39.982Z,7.99
2018-12-29T11:48:32.780Z,7.95
2018-12-29T11:49:32.712Z,7.88
2018-12-29T11:51:25.579Z,7.95
2018-12-29T11:52:25.441Z,7.95
2018-12-29T11:54:18.206Z,7.99
2018-12-29T11:55:18.128Z,8.03
2018-12-29T11:57:10.935Z,8.00
2018-12-29T11:58:10.840Z,8.04
2018-12-29T12:00:03.603Z,8.09
2018-12-29T12:01:03.555Z,8.03
2018-12-29T12:02:56.357Z,8.04
2018-12-29T12:03:56.276Z,8.14
2018-12-29T12:05:49.106Z,8.07
2018-12-29T12:06:49.027Z,8.03
2018-12-29T12:08:41.789Z,8.13
2018-12-29T12:09:41.723Z,8.07
2018-12-29T12:11:34.503Z,8.10
2018-12-29T12:12:34.426Z,8.04
2018-12-29T12:14:27.373Z,8.07
2018-12-29T12:15:27.156Z,8.07
2018-12-29T12:17:20.051Z,8.12
2018-12-29T12:18:19.942Z,8.03
2018-12-29T12:20:12.747Z,7.99
2018-12-29T12:21:12.675Z,8.02
2018-12-29T12:23:05.442Z,8.02
2018-12-29T12:24:05.365Z,8.02
2018-12-29T12:25:58.211Z,8.00
2018-12-29T12:26:58.116Z,8.00
2018-12-29T12:28:50.939Z,8.02
2018-12-29T12:29:50.800Z,7.99
2018-12-29T12:31:43.652Z,8.03
2018-12-29T12:32:43.573Z,8.00
2018-12-29T12:34:36.396Z,7.88
2018-12-29T12:35:36.328Z,7.89
2018-12-29T12:37:29.159Z,7.88
2018-12-29T12:38:29.077Z,7.91
2018-12-29T12:40:21.874Z,7.94
2018-12-29T12:41:21.815Z,7.79
2018-12-29T12:43:14.609Z,7.86
2018-12-29T12:44:14.509Z,7.76
2018-12-29T12:46:07.307Z,7.79
2018-12-29T12:47:07.226Z,7.79
2018-12-29T12:49:00.080Z,7.77
2018-12-29T12:50:00.097Z,7.79
2018-12-29T12:51:52.780Z,7.81
2018-12-29T12:52:52.706Z,7.82
2018-12-29T12:54:45.553Z,7.81
2018-12-29T12:55:45.473Z,7.88
2018-12-29T12:57:38.241Z,7.81
2018-12-29T12:58:38.186Z,7.79
2018-12-29T13:00:30.923Z,7.95
2018-12-29T13:01:30.853Z,7.84
2018-12-29T13:03:23.748Z,7.89
2018-12-29T13:04:23.667Z,7.89
2018-12-29T13:06:16.464Z,7.95
2018-12-29T13:07:16.394Z,7.89
2018-12-29T13:09:09.226Z,7.85
2018-12-29T13:10:09.157Z,7.94
2018-12-29T13:12:01.926Z,7.99
2018-12-29T13:13:01.842Z,7.92
2018-12-29T13:14:54.598Z,8.02
2018-12-29T13:15:54.514Z,7.88
2018-12-29T13:17:47.272Z,7.99
2018-12-29T13:18:47.283Z,7.85
2018-12-29T13:20:40.002Z,7.95
2018-12-29T13:21:39.948Z,7.99
2018-12-29T13:23:32.755Z,8.04
2018-12-29T13:24:32.722Z,8.00
2018-12-29T13:26:25.496Z,7.99
2018-12-29T13:27:25.417Z,8.04
2018-12-29T13:29:18.244Z,7.96
2018-12-29T13:30:18.172Z,8.02
2018-12-29T13:32:11.015Z,7.94
2018-12-29T13:33:10.932Z,7.95
2018-12-29T13:35:03.758Z,7.99
2018-12-29T13:36:03.683Z,8.02
2018-12-29T13:37:56.489Z,7.92
2018-12-29T13:38:56.418Z,7.91
2018-12-29T13:40:49.260Z,7.94
2018-12-29T13:41:49.160Z,7.94
2018-12-29T13:43:41.941Z,8.00
2018-12-29T13:44:41.890Z,7.94
2018-12-29T13:46:34.673Z,7.94
2018-12-29T13:47:34.605Z,7.95
2018-12-29T13:49:27.516Z,7.94
2018-12-29T13:50:27.405Z,7.95
2018-12-29T13:52:20.327Z,7.86
2018-12-29T13:53:20.198Z,7.92
2018-12-29T13:55:12.938Z,8.00
2018-12-29T13:56:12.870Z,7.94
2018-12-29T13:58:06.541Z,7.82
2018-12-29T13:59:06.438Z,7.86
2018-12-29T14:00:59.231Z,7.88
2018-12-29T14:01:59.167Z,7.94
2018-12-29T14:03:51.967Z,7.91
2018-12-29T14:04:51.883Z,7.88
2018-12-29T14:06:44.727Z,7.92
2018-12-29T14:07:44.639Z,7.88
2018-12-29T14:09:37.486Z,8.00
2018-12-29T14:10:37.396Z,8.00
2018-12-29T14:12:30.230Z,7.92
2018-12-29T14:13:30.141Z,7.99
2018-12-29T14:15:22.928Z,8.00
2018-12-29T14:16:22.834Z,8.02
2018-12-29T14:18:17.322Z,8.00
2018-12-29T14:19:17.284Z,7.88
2018-12-29T14:21:10.151Z,7.92
2018-12-29T14:22:10.043Z,7.92
2018-12-29T14:24:02.856Z,7.95
2018-12-29T14:25:02.778Z,7.92
2018-12-29T14:26:55.537Z,7.94
2018-12-29T14:27:55.470Z,7.95
2018-12-29T14:29:49.078Z,7.95
2018-12-29T14:30:48.998Z,7.94
2018-12-29T14:32:41.813Z,7.95
2018-12-29T14:33:41.825Z,8.03
2018-12-29T14:35:34.576Z,8.00
2018-12-29T14:36:34.496Z,7.99
2018-12-29T14:38:27.421Z,8.00
2018-12-29T14:39:27.300Z,7.94
2018-12-29T14:41:20.242Z,7.94
2018-12-29T14:42:20.179Z,7.95
2018-12-29T14:44:13.016Z,7.99
2018-12-29T14:45:12.937Z,7.92
2018-12-29T14:47:05.679Z,7.99
2018-12-29T14:48:05.610Z,7.88
2018-12-29T14:49:58.438Z,7.92
2018-12-29T14:50:58.378Z,7.94
2018-12-29T14:52:51.129Z,7.88
2018-12-29T14:53:51.063Z,7.95
2018-12-29T14:55:43.931Z,7.99
2018-12-29T14:56:43.854Z,7.96
2018-12-29T14:58:36.702Z,7.96
2018-12-29T14:59:36.614Z,7.99
2018-12-29T15:01:29.370Z,7.94
2018-12-29T15:02:29.294Z,7.99
2018-12-29T15:04:22.108Z,7.92
2018-12-29T15:05:22.008Z,7.95
2018-12-29T15:07:14.842Z,7.89
2018-12-29T15:08:14.772Z,7.94
2018-12-29T15:10:07.609Z,7.95
2018-12-29T15:11:07.539Z,7.96
2018-12-29T15:13:00.346Z,7.92
2018-12-29T15:14:00.294Z,7.95
2018-12-29T15:15:53.092Z,7.94
2018-12-29T15:16:53.014Z,7.89
2018-12-29T15:18:45.833Z,7.95
2018-12-29T15:19:45.766Z,7.99
2018-12-29T15:21:38.542Z,7.89
2018-12-29T15:22:38.448Z,7.91
2018-12-29T15:24:31.239Z,7.89
2018-12-29T15:25:31.161Z,7.86
2018-12-29T15:27:23.911Z,7.88
2018-12-29T15:28:23.840Z,7.92
2018-12-29T15:30:16.623Z,7.88
2018-12-29T15:31:16.546Z,7.88
2018-12-29T15:33:09.304Z,7.91
2018-12-29T15:34:09.242Z,7.92
2018-12-29T15:36:02.025Z,7.86
2018-12-29T15:37:01.966Z,7.94
2018-12-29T15:38:54.711Z,7.85
2018-12-29T15:39:54.639Z,7.91
2018-12-29T15:41:47.458Z,7.92
2018-12-29T15:42:47.419Z,7.92
2018-12-29T15:44:40.174Z,7.99
2018-12-29T15:45:40.128Z,8.00
2018-12-29T15:47:32.940Z,8.00
2018-12-29T15:48:32.843Z,8.00
2018-12-29T15:50:25.709Z,7.99
2018-12-29T15:51:25.592Z,8.02
2018-12-29T15:53:18.350Z,8.02
2018-12-29T15:54:18.278Z,8.00
2018-12-29T15:56:11.068Z,8.02
2018-12-29T15:57:11.003Z,7.96
2018-12-29T15:59:03.788Z,8.00
2018-12-29T16:00:03.686Z,7.94
2018-12-29T16:01:56.464Z,7.92
2018-12-29T16:02:56.412Z,7.99
2018-12-29T16:04:49.177Z,8.00
2018-12-29T16:05:49.086Z,7.99
2018-12-29T16:07:41.856Z,7.92
2018-12-29T16:08:41.790Z,7.95
2018-12-29T16:10:34.570Z,8.02
2018-12-29T16:11:34.492Z,8.02
2018-12-29T16:13:27.304Z,7.96
2018-12-29T16:14:27.226Z,8.00
2018-12-29T16:16:20.016Z,7.91
2018-12-29T16:17:19.934Z,7.95
2018-12-29T16:19:12.827Z,7.88
2018-12-29T16:20:12.707Z,7.95
2018-12-29T16:22:05.743Z,8.00
2018-12-29T16:23:05.438Z,7.92
2018-12-29T16:24:58.219Z,8.02
2018-12-29T16:25:58.138Z,8.04
2018-12-29T16:27:52.252Z,8.00
2018-12-29T16:28:51.163Z,7.99
2018-12-29T16:30:43.783Z,7.99
2018-12-29T16:31:43.691Z,7.99
2018-12-29T16:33:36.504Z,7.99
2018-12-29T16:34:36.435Z,8.03
2018-12-29T16:36:29.219Z,7.99
2018-12-29T16:37:29.291Z,7.99
2018-12-29T16:39:21.904Z,7.95
2018-12-29T16:40:21.836Z,8.06
2018-12-29T16:42:14.714Z,7.94
2018-12-29T16:43:14.600Z,8.02
2018-12-29T16:45:07.361Z,8.12
2018-12-29T16:46:07.298Z,8.07
2018-12-29T16:48:00.049Z,8.03
2018-12-29T16:49:06.529Z,8.07
2018-12-29T16:50:52.841Z,7.99
2018-12-29T16:51:52.670Z,8.02
2018-12-29T16:53:45.470Z,8.03
2018-12-29T16:54:45.382Z,8.02
2018-12-29T16:56:38.194Z,8.02
2018-12-29T16:57:38.120Z,8.04
2018-12-29T16:59:30.849Z,8.14
2018-12-29T17:00:30.782Z,8.06
2018-12-29T17:02:23.626Z,7.96
2018-12-29T17:03:23.532Z,8.09
2018-12-29T17:05:16.274Z,8.10
2018-12-29T17:06:16.225Z,7.99
2018-12-29T17:08:09.011Z,8.03
2018-12-29T17:09:08.926Z,8.04
2018-12-29T17:11:01.711Z,8.09
2018-12-29T17:12:01.641Z,7.99
2018-12-29T17:13:54.501Z,8.04
2018-12-29T17:14:54.434Z,8.04
2018-12-29T17:16:47.258Z,8.06
2018-12-29T17:17:47.194Z,7.94
2018-12-29T17:19:40.040Z,8.17
2018-12-29T17:20:39.971Z,8.07
2018-12-29T17:22:32.757Z,8.09
2018-12-29T17:23:32.680Z,8.02
2018-12-29T17:25:25.490Z,8.13
2018-12-29T17:26:25.420Z,8.10
2018-12-29T17:28:18.154Z,8.12
2018-12-29T17:29:18.108Z,8.12
2018-12-29T17:31:10.971Z,8.14
2018-12-29T17:32:10.908Z,8.12
2018-12-29T17:34:03.818Z,8.06
2018-12-29T17:35:03.583Z,8.12
2018-12-29T17:36:56.488Z,8.10
2018-12-29T17:37:56.298Z,8.06
2018-12-29T17:39:49.140Z,8.07
2018-12-29T17:40:49.070Z,8.03
2018-12-29T17:42:42.003Z,7.99
2018-12-29T17:43:41.811Z,8.17
2018-12-29T17:45:34.556Z,8.02
2018-12-29T17:46:34.496Z,8.09
2018-12-29T17:48:27.303Z,8.07
2018-12-29T17:49:27.222Z,7.99
2018-12-29T17:51:20.009Z,7.96
2018-12-29T17:52:19.941Z,7.99
2018-12-29T17:54:12.777Z,7.99
2018-12-29T17:55:12.651Z,7.95
2018-12-29T17:57:05.465Z,8.02
2018-12-29T17:58:05.371Z,7.99
2018-12-29T17:59:58.199Z,8.02
2018-12-29T18:00:58.118Z,8.02
2018-12-29T18:02:50.890Z,7.99
2018-12-29T18:03:50.792Z,7.99
2018-12-29T18:05:44.409Z,7.95
2018-12-29T18:06:44.347Z,8.03
2018-12-29T18:08:37.110Z,7.96
2018-12-29T18:09:37.035Z,7.96
2018-12-29T18:11:29.816Z,7.96
2018-12-29T18:12:29.736Z,7.99
2018-12-29T18:14:22.618Z,7.94
2018-12-29T18:15:22.490Z,8.02
2018-12-29T18:17:15.306Z,8.03
2018-12-29T18:18:15.225Z,8.02
2018-12-29T18:20:08.071Z,7.95
2018-12-29T18:21:07.985Z,8.03
2018-12-29T18:23:00.845Z,7.94
2018-12-29T18:24:00.746Z,7.92
2018-12-29T18:25:53.529Z,7.94
2018-12-29T18:26:53.458Z,7.89
2018-12-29T18:28:46.515Z,7.89
2018-12-29T18:29:46.138Z,7.86
2018-12-29T18:31:38.956Z,7.82
2018-12-29T18:32:38.890Z,7.77
2018-12-29T18:34:31.711Z,7.79
2018-12-29T18:35:31.634Z,7.86
2018-12-29T18:37:24.487Z,7.81
2018-12-29T18:38:24.385Z,7.77
2018-12-29T18:40:17.217Z,7.82
2018-12-29T18:41:17.134Z,7.76
2018-12-29T18:43:09.957Z,7.73
2018-12-29T18:44:09.906Z,7.71
2018-12-29T18:46:02.787Z,7.81
2018-12-29T18:47:02.680Z,7.76
2018-12-29T18:48:55.387Z,7.84
2018-12-29T18:49:55.317Z,7.84
2018-12-29T18:51:48.113Z,7.79
2018-12-29T18:52:48.033Z,7.74
2018-12-29T18:54:40.867Z,7.79
2018-12-29T18:55:40.784Z,7.82
2018-12-29T18:57:33.621Z,7.81
2018-12-29T18:58:33.531Z,7.74
2018-12-29T19:00:26.395Z,7.76
2018-12-29T19:01:26.298Z,7.82
2018-12-29T19:03:19.134Z,7.85
2018-12-29T19:04:19.047Z,7.79
2018-12-29T19:06:11.798Z,7.73
2018-12-29T19:07:11.721Z,7.84
2018-12-29T19:09:04.527Z,7.76